createdAt,value
2023-05-03T00:00:55.615Z,1.60
2023-05-03T00:03:23.936Z,1.80
2023-05-03T00:05:52.020Z,2.42
2023-05-03T00:08:22.138Z,2.55
2023-05-03T00:10:49.844Z,3.30
2023-05-03T00:13:17.564Z,3.97
2023-05-03T00:15:45.377Z,4.60
2023-05-03T00:18:13.372Z,4.70
2023-05-03T00:20:41.253Z,4.18
2023-05-03T00:23:08.909Z,3.17
2023-05-03T00:25:36.829Z,3.00
2023-05-03T00:28:04.828Z,2.97
2023-05-03T00:30:32.632Z,2.80
2023-05-03T00:33:00.549Z,3.20
2023-05-03T00:35:28.309Z,2.17
2023-05-03T00:37:56.107Z,2.40
2023-05-03T00:40:23.884Z,2.45
2023-05-03T00:42:51.814Z,2.17
2023-05-03T00:45:22.211Z,2.25
2023-05-03T00:47:50.170Z,1.88
2023-05-03T00:50:18.240Z,1.85
2023-05-03T00:52:46.359Z,2.22
2023-05-03T00:55:15.848Z,2.17
2023-05-03T00:57:44.545Z,1.83
2023-05-03T01:00:13.755Z,2.17
2023-05-03T01:02:41.763Z,1.92
2023-05-03T01:05:10.951Z,1.90
2023-05-03T01:07:44.050Z,2.20
2023-05-03T01:10:23.535Z,2.30
2023-05-03T01:12:54.283Z,2.20
2023-05-03T01:15:57.001Z,2.00
2023-05-03T01:18:32.549Z,1.80
2023-05-03T01:21:02.840Z,1.60
2023-05-03T01:23:51.776Z,1.92
2023-05-03T01:26:20.693Z,2.10
2023-05-03T01:28:48.659Z,1.48
2023-05-03T01:31:43.314Z,1.40
2023-05-03T01:34:17.150Z,1.48
2023-05-03T01:36:46.100Z,1.80
2023-05-03T01:39:24.916Z,1.40
2023-05-03T01:41:53.728Z,1.70
2023-05-03T01:44:23.187Z,1.70
2023-05-03T01:46:50.894Z,1.55
2023-05-03T01:49:18.702Z,2.00
2023-05-03T01:51:46.534Z,1.65
2023-05-03T01:54:14.412Z,2.20
2023-05-03T01:56:42.082Z,1.70
2023-05-03T01:59:09.979Z,1.40
2023-05-03T02:01:37.810Z,1.85
2023-05-03T02:04:05.593Z,1.50
2023-05-03T02:06:33.545Z,1.65
2023-05-03T02:09:01.552Z,1.80
2023-05-03T02:11:29.321Z,1.88
2023-05-03T02:13:57.107Z,1.38
2023-05-03T02:16:24.823Z,1.20
2023-05-03T02:18:54.062Z,1.83
2023-05-03T02:21:21.831Z,1.20
2023-05-03T02:23:49.680Z,1.40
2023-05-03T02:26:17.542Z,1.10
2023-05-03T02:28:45.228Z,1.55
2023-05-03T02:31:16.203Z,1.73
2023-05-03T02:33:44.527Z,1.30
2023-05-03T02:36:12.280Z,1.40
2023-05-03T02:38:39.987Z,1.35
2023-05-03T02:41:08.235Z,1.40
2023-05-03T02:43:35.893Z,1.40
2023-05-03T02:46:03.785Z,1.55
2023-05-03T02:48:32.032Z,1.75
2023-05-03T02:51:00.061Z,1.42
2023-05-03T02:53:27.889Z,1.42
2023-05-03T02:55:59.587Z,1.70
2023-05-03T02:58:27.512Z,1.73
2023-05-03T03:00:55.736Z,1.45
2023-05-03T03:03:26.454Z,1.45
2023-05-03T03:05:54.103Z,1.30
2023-05-03T03:08:23.187Z,1.25
2023-05-03T03:10:51.672Z,1.60
2023-05-03T03:13:19.564Z,1.30
2023-05-03T03:15:47.345Z,1.70
2023-05-03T03:18:16.059Z,1.45
2023-05-03T03:20:44.917Z,1.70
2023-05-03T03:23:12.899Z,1.73
2023-05-03T03:25:42.579Z,1.30
2023-05-03T03:28:10.315Z,1.70
2023-05-03T03:30:39.032Z,1.48
2023-05-03T03:33:17.369Z,1.48
2023-05-03T03:35:45.820Z,1.20
2023-05-03T03:38:13.953Z,1.55
2023-05-03T03:40:49.750Z,1.83
2023-05-03T03:43:17.613Z,1.42
2023-05-03T03:45:45.979Z,1.70
2023-05-03T03:48:16.299Z,1.30
2023-05-03T03:50:44.358Z,1.52
2023-05-03T03:53:13.553Z,1.60
2023-05-03T03:55:41.935Z,1.30
2023-05-03T03:58:09.991Z,1.40
2023-05-03T04:00:38.677Z,1.40
2023-05-03T04:03:13.337Z,1.50
2023-05-03T04:05:41.128Z,1.60
2023-05-03T04:08:09.585Z,1.50
2023-05-03T04:10:38.928Z,1.25
2023-05-03T04:13:09.680Z,1.75
2023-05-03T04:15:37.659Z,1.58
2023-05-03T04:18:06.787Z,1.48
2023-05-03T04:20:39.007Z,1.60
2023-05-03T04:23:08.674Z,1.48
2023-05-03T04:25:37.238Z,1.35
2023-05-03T04:28:13.837Z,1.23
2023-05-03T04:30:47.188Z,1.60
2023-05-03T04:33:17.792Z,1.50
2023-05-03T04:35:45.818Z,1.27
2023-05-03T04:38:15.882Z,1.33
2023-05-03T04:40:44.294Z,1.20
2023-05-03T04:43:13.059Z,1.38
2023-05-03T04:45:45.218Z,1.50
2023-05-03T04:48:18.328Z,1.80
2023-05-03T04:50:46.493Z,1.50
2023-05-03T04:53:16.622Z,1.77
2023-05-03T04:55:48.284Z,1.75
2023-05-03T04:58:16.039Z,2.10
2023-05-03T05:00:46.239Z,1.95
2023-05-03T05:03:20.178Z,2.03
2023-05-03T05:05:48.659Z,2.70
2023-05-03T05:08:16.681Z,2.63
2023-05-03T05:10:50.688Z,2.83
2023-05-03T05:13:23.060Z,3.22
2023-05-03T05:15:54.053Z,3.53
2023-05-03T05:18:22.905Z,4.80
2023-05-03T05:20:52.408Z,4.63
2023-05-03T05:23:21.210Z,8.73
2023-05-03T05:25:49.552Z,6.72
2023-05-03T05:28:18.501Z,4.82
2023-05-03T05:30:47.647Z,4.20
2023-05-03T05:33:20.402Z,5.05
2023-05-03T05:35:53.861Z,4.25
2023-05-03T05:38:28.168Z,4.03
2023-05-03T05:40:58.855Z,4.18
2023-05-03T05:43:26.733Z,4.47
2023-05-03T05:45:56.033Z,3.80
2023-05-03T05:48:25.528Z,4.05
2023-05-03T05:50:53.530Z,3.78
2023-05-03T05:53:21.392Z,4.07
2023-05-03T05:55:56.625Z,3.95
2023-05-03T05:58:26.389Z,4.07
2023-05-03T06:01:01.513Z,3.85
2023-05-03T06:03:31.930Z,3.55
2023-05-03T06:06:02.556Z,3.80
2023-05-03T06:08:30.402Z,3.92
2023-05-03T06:11:01.290Z,3.67
2023-05-03T06:13:33.870Z,4.13
2023-05-03T06:16:02.709Z,4.20
2023-05-03T06:18:30.541Z,4.00
2023-05-03T06:20:58.479Z,4.15
2023-05-03T06:23:28.305Z,4.30
2023-05-03T06:25:57.684Z,5.05
2023-05-03T06:28:26.018Z,4.38
2023-05-03T06:30:56.180Z,4.70
2023-05-03T06:33:24.208Z,4.95
2023-05-03T06:35:53.178Z,4.88
2023-05-03T06:38:21.462Z,4.28
2023-05-03T06:40:50.557Z,4.10
2023-05-03T06:43:18.553Z,4.00
2023-05-03T06:46:06.945Z,4.65
2023-05-03T06:48:34.609Z,5.60
2023-05-03T06:51:02.608Z,5.30
2023-05-03T06:53:30.544Z,3.40
2023-05-03T06:55:58.226Z,3.08
2023-05-03T06:58:26.028Z,3.83
2023-05-03T07:00:54.094Z,4.63
2023-05-03T07:03:21.978Z,4.18
2023-05-03T07:05:49.706Z,5.32
2023-05-03T07:08:17.887Z,9.15
2023-05-03T07:10:45.632Z,7.68
2023-05-03T07:13:14.380Z,5.45
2023-05-03T07:15:42.544Z,4.97
2023-05-03T07:18:10.358Z,4.93
2023-05-03T07:20:38.644Z,5.10
2023-05-03T07:23:07.525Z,5.28
2023-05-03T07:25:35.271Z,4.68
2023-05-03T07:28:03.624Z,4.80
2023-05-03T07:30:31.604Z,6.03
2023-05-03T07:32:59.571Z,6.18
2023-05-03T07:35:27.418Z,5.97
2023-05-03T07:37:55.377Z,5.70
2023-05-03T07:40:23.465Z,6.32
2023-05-03T07:42:52.294Z,5.72
2023-05-03T07:45:21.039Z,5.63
2023-05-03T07:47:48.914Z,5.32
2023-05-03T07:50:20.657Z,4.75
2023-05-03T07:52:51.948Z,5.00
2023-05-03T07:55:20.660Z,6.13
2023-05-03T07:57:48.605Z,5.30
2023-05-03T08:00:18.189Z,6.55
2023-05-03T08:02:46.093Z,7.53
2023-05-03T08:05:15.119Z,8.93
2023-05-03T08:07:43.106Z,7.05
2023-05-03T08:10:11.428Z,6.82
2023-05-03T08:12:39.515Z,6.90
2023-05-03T08:15:08.416Z,7.05
2023-05-03T08:17:46.614Z,6.93
2023-05-03T08:20:14.816Z,7.00
2023-05-03T08:22:43.030Z,7.53
2023-05-03T08:25:11.622Z,8.25
2023-05-03T08:27:40.198Z,7.55
2023-05-03T08:30:08.789Z,7.55
2023-05-03T08:32:36.707Z,9.20
2023-05-03T08:35:07.215Z,7.05
2023-05-03T08:37:40.244Z,9.50
2023-05-03T08:40:11.848Z,8.25
2023-05-03T08:42:46.397Z,7.63
2023-05-03T08:45:17.646Z,8.52
2023-05-03T08:47:46.107Z,8.68
2023-05-03T08:50:15.626Z,8.60
2023-05-03T08:52:44.522Z,8.10
2023-05-03T08:55:12.849Z,7.20
2023-05-03T08:57:41.830Z,6.57
2023-05-03T09:00:11.346Z,7.65
2023-05-03T09:02:40.411Z,6.40
2023-05-03T09:05:17.602Z,6.75
2023-05-03T09:08:13.924Z,6.00
2023-05-03T09:10:43.121Z,6.10
2023-05-03T09:13:12.226Z,5.88
2023-05-03T09:15:40.230Z,6.10
2023-05-03T09:18:19.083Z,5.30
2023-05-03T09:20:52.841Z,4.15
2023-05-03T09:23:26.988Z,4.40
2023-05-03T09:25:55.041Z,3.97
2023-05-03T09:28:22.857Z,4.60
2023-05-03T09:31:04.000Z,4.13
2023-05-03T09:33:31.871Z,4.47
2023-05-03T09:36:04.929Z,3.72
2023-05-03T09:38:35.073Z,3.35
2023-05-03T09:41:06.027Z,3.22
2023-05-03T09:43:35.547Z,3.35
2023-05-03T09:46:13.482Z,4.13
2023-05-03T09:48:41.611Z,3.15
2023-05-03T09:51:11.555Z,3.33
2023-05-03T09:53:40.738Z,3.15
2023-05-03T09:56:13.236Z,2.78
2023-05-03T09:58:42.256Z,2.88
2023-05-03T10:01:11.068Z,2.63
2023-05-03T10:03:44.212Z,2.55
2023-05-03T10:06:30.284Z,2.67
2023-05-03T10:09:16.570Z,3.08
2023-05-03T10:11:49.087Z,2.08
2023-05-03T10:14:17.191Z,2.53
2023-05-03T10:16:48.686Z,2.13
2023-05-03T10:19:21.717Z,2.35
2023-05-03T10:22:03.722Z,2.20
2023-05-03T10:24:32.408Z,2.30
2023-05-03T10:27:00.814Z,2.90
2023-05-03T10:29:37.809Z,3.25
2023-05-03T10:32:06.037Z,3.08
2023-05-03T10:34:35.954Z,2.60
2023-05-03T10:37:09.662Z,3.78
2023-05-03T10:39:46.805Z,4.18
2023-05-03T10:42:14.811Z,3.10
2023-05-03T10:44:55.552Z,3.10
2023-05-03T10:47:24.713Z,2.58
2023-05-03T10:50:21.186Z,2.13
2023-05-03T10:52:49.137Z,2.17
2023-05-03T10:55:22.231Z,1.85
2023-05-03T10:57:54.003Z,1.70
2023-05-03T11:00:36.171Z,1.60
2023-05-03T11:03:18.962Z,1.90
2023-05-03T11:05:49.604Z,1.40
2023-05-03T11:08:22.498Z,1.50
2023-05-03T11:10:57.568Z,1.10
2023-05-03T11:13:26.137Z,1.67
2023-05-03T11:15:57.280Z,1.40
2023-05-03T11:18:27.835Z,1.80
2023-05-03T11:20:56.147Z,1.40
2023-05-03T11:23:28.898Z,1.50
2023-05-03T11:26:00.170Z,1.88
2023-05-03T11:28:28.060Z,1.70
2023-05-03T11:30:55.730Z,1.50
2023-05-03T11:33:23.622Z,1.83
2023-05-03T11:35:56.520Z,2.00
2023-05-03T11:38:24.393Z,2.40
2023-05-03T11:40:52.776Z,2.20
2023-05-03T11:43:20.626Z,3.17
2023-05-03T11:48:41.859Z,12.90
2023-05-03T11:51:14.125Z,8.35
2023-05-03T11:53:44.334Z,5.45
2023-05-03T11:56:19.206Z,3.78
2023-05-03T11:58:58.854Z,2.67
2023-05-03T12:01:29.133Z,1.90
2023-05-03T12:04:04.853Z,2.10
2023-05-03T12:06:35.742Z,2.65
2023-05-03T12:09:05.406Z,4.70
2023-05-03T12:11:44.729Z,6.10
2023-05-03T12:14:13.418Z,3.83
2023-05-03T12:16:51.185Z,3.00
2023-05-03T12:19:32.191Z,2.08
2023-05-03T12:22:22.873Z,1.98
2023-05-03T12:24:49.801Z,1.65
2023-05-03T12:27:19.639Z,1.63
2023-05-03T12:30:01.830Z,1.83
2023-05-03T12:32:30.024Z,1.88
2023-05-03T12:34:58.658Z,1.85
2023-05-03T12:37:33.253Z,2.03
2023-05-03T12:40:29.285Z,2.28
2023-05-03T12:42:50.038Z,1.88
2023-05-03T12:45:21.176Z,2.70
2023-05-03T12:47:50.321Z,1.80
2023-05-03T12:50:18.982Z,1.77
2023-05-03T12:52:47.055Z,2.00
2023-05-03T12:55:17.949Z,1.70
2023-05-03T12:57:53.620Z,2.03
2023-05-03T13:00:35.809Z,2.20
2023-05-03T13:05:40.844Z,1.98
2023-05-03T13:08:11.484Z,2.30
2023-05-03T13:10:41.878Z,2.15
2023-05-03T13:13:09.724Z,2.10
2023-05-03T13:15:38.271Z,2.00
2023-05-03T13:18:07.668Z,1.95
2023-05-03T13:20:37.119Z,1.65
2023-05-03T13:23:04.957Z,1.83
2023-05-03T13:25:32.800Z,1.98
2023-05-03T13:28:01.806Z,2.00
2023-05-03T13:30:29.870Z,1.95
2023-05-03T13:32:57.852Z,1.80
2023-05-03T13:35:26.160Z,2.00
2023-05-03T13:37:53.884Z,2.20
2023-05-03T13:40:21.679Z,2.10
2023-05-03T13:42:49.453Z,2.28
2023-05-03T13:45:18.296Z,3.88
2023-05-03T13:50:16.806Z,3.20
2023-05-03T13:52:44.969Z,2.58
2023-05-03T13:55:12.688Z,2.72
2023-05-03T13:57:44.134Z,2.15
2023-05-03T14:00:12.472Z,1.70
2023-05-03T14:02:40.402Z,1.98
2023-05-03T14:05:08.688Z,1.90
2023-05-03T14:07:38.248Z,2.00
2023-05-03T14:10:07.028Z,1.65
2023-05-03T14:12:36.851Z,2.10
2023-05-03T14:15:08.548Z,1.70
2023-05-03T14:17:36.365Z,1.73
2023-05-03T14:20:08.497Z,1.92
2023-05-03T14:22:36.258Z,1.83
2023-05-03T14:25:04.506Z,2.55
2023-05-03T14:27:33.325Z,1.63
2023-05-03T14:30:01.275Z,1.65
2023-05-03T14:32:29.706Z,2.05
2023-05-03T14:34:57.493Z,1.80
2023-05-03T14:37:25.159Z,1.95
2023-05-03T14:39:53.006Z,2.22
2023-05-03T14:42:20.765Z,2.17
2023-05-03T14:44:48.445Z,1.98
2023-05-03T14:47:16.683Z,2.10
2023-05-03T14:49:44.426Z,1.45
2023-05-03T14:52:12.038Z,1.90
2023-05-03T14:54:39.781Z,1.45
2023-05-03T14:57:08.895Z,1.55
2023-05-03T14:59:36.642Z,1.60
2023-05-03T15:02:04.361Z,1.55
2023-05-03T15:04:32.163Z,1.75
2023-05-03T15:07:04.060Z,1.92
2023-05-03T15:09:31.961Z,1.40
2023-05-03T15:12:02.204Z,1.70
2023-05-03T15:14:30.311Z,1.63
2023-05-03T15:16:58.267Z,1.17
2023-05-03T15:19:26.937Z,1.38
2023-05-03T15:21:55.128Z,1.10
2023-05-03T15:24:23.171Z,1.05
2023-05-03T15:26:51.699Z,1.40
2023-05-03T15:29:19.531Z,1.20
2023-05-03T15:31:47.527Z,1.30
2023-05-03T15:34:15.482Z,1.20
2023-05-03T15:36:43.270Z,1.40
2023-05-03T15:39:11.279Z,1.45
2023-05-03T15:41:39.614Z,1.00
2023-05-03T15:44:09.890Z,1.33
2023-05-03T15:46:38.653Z,1.10
2023-05-03T15:49:07.783Z,1.40
2023-05-03T15:51:35.689Z,1.27
2023-05-03T15:54:04.024Z,1.00
2023-05-03T15:56:32.470Z,0.88
2023-05-03T15:59:00.054Z,1.30
2023-05-03T16:01:27.949Z,1.13
2023-05-03T16:03:56.138Z,1.02
2023-05-03T16:06:23.870Z,1.35
2023-05-03T16:08:52.842Z,1.48
2023-05-03T16:11:20.620Z,1.50
2023-05-03T16:13:48.409Z,1.42
2023-05-03T16:16:16.341Z,1.48
2023-05-03T16:18:44.266Z,1.42
2023-05-03T16:21:12.016Z,1.70
2023-05-03T16:23:39.758Z,3.13
2023-05-03T16:26:18.295Z,2.63
2023-05-03T16:28:47.256Z,2.55
2023-05-03T16:31:19.040Z,2.95
2023-05-03T16:33:46.851Z,2.67
2023-05-03T16:36:14.973Z,2.30
2023-05-03T16:38:42.597Z,2.22
2023-05-03T16:41:10.597Z,1.92
2023-05-03T16:43:38.786Z,1.67
2023-05-03T16:46:07.416Z,1.20
2023-05-03T16:48:35.249Z,2.25
2023-05-03T16:51:02.963Z,1.83
2023-05-03T16:53:31.615Z,2.10
2023-05-03T16:55:59.836Z,1.60
2023-05-03T16:58:27.841Z,1.80
2023-05-03T17:00:56.433Z,1.30
2023-05-03T17:03:25.575Z,1.50
2023-05-03T17:05:54.270Z,1.77
2023-05-03T17:08:21.992Z,1.20
2023-05-03T17:10:50.177Z,1.45
2023-05-03T17:13:18.164Z,1.45
2023-05-03T17:15:48.163Z,1.63
2023-05-03T17:18:16.651Z,2.20
2023-05-03T17:20:44.483Z,1.67
2023-05-03T17:23:12.922Z,1.90
2023-05-03T17:25:42.739Z,2.20
2023-05-03T17:28:10.360Z,2.63
2023-05-03T17:30:39.056Z,3.08
2023-05-03T17:33:08.000Z,13.93
2023-05-03T17:35:35.968Z,11.45
2023-05-03T17:38:05.341Z,9.02
2023-05-03T17:40:33.239Z,5.72
2023-05-03T17:43:01.292Z,4.25
2023-05-03T17:45:29.050Z,3.60
2023-05-03T17:47:58.905Z,3.40
2023-05-03T17:50:26.632Z,2.70
2023-05-03T17:52:54.881Z,2.30
2023-05-03T17:55:22.773Z,2.63
2023-05-03T17:57:51.088Z,2.53
2023-05-03T18:00:21.318Z,1.88
2023-05-03T18:02:49.658Z,1.73
2023-05-03T18:05:17.814Z,1.95
2023-05-03T18:07:45.580Z,1.77
2023-05-03T18:10:16.519Z,1.70
2023-05-03T18:12:44.303Z,1.65
2023-05-03T18:15:12.416Z,1.70
2023-05-03T18:17:40.224Z,1.42
2023-05-03T18:20:09.798Z,2.05
2023-05-03T18:22:37.981Z,1.58
2023-05-03T18:25:07.632Z,1.60
2023-05-03T18:27:37.861Z,1.63
2023-05-03T18:30:06.994Z,1.88
2023-05-03T18:32:35.125Z,1.50
2023-05-03T18:35:03.569Z,1.90
2023-05-03T18:37:31.503Z,2.00
2023-05-03T18:39:59.495Z,2.03
2023-05-03T18:42:27.455Z,2.63
2023-05-03T18:44:55.224Z,2.92
2023-05-03T18:47:23.265Z,2.80
2023-05-03T18:50:01.114Z,3.20
2023-05-03T18:52:28.896Z,3.50
2023-05-03T18:54:56.712Z,2.75
2023-05-03T18:57:24.529Z,2.70
2023-05-03T18:59:59.955Z,2.88
2023-05-03T19:02:31.621Z,2.50
2023-05-03T19:05:00.161Z,2.40
2023-05-03T19:07:29.251Z,2.90
2023-05-03T19:09:57.673Z,2.67
2023-05-03T19:12:25.621Z,2.70
2023-05-03T19:14:53.376Z,2.88
2023-05-03T19:17:21.472Z,2.92
2023-05-03T19:19:49.193Z,2.65
2023-05-03T19:22:16.973Z,3.83
2023-05-03T19:24:44.818Z,10.10
2023-05-03T19:27:12.947Z,14.13
2023-05-03T19:29:40.755Z,19.27
2023-05-03T19:32:08.509Z,28.05
2023-05-03T19:34:36.579Z,18.70
2023-05-03T19:37:05.303Z,11.55
2023-05-03T19:39:35.829Z,9.85
2023-05-03T19:42:04.060Z,7.13
2023-05-03T19:44:32.144Z,6.35
2023-05-03T19:46:59.808Z,5.50
2023-05-03T19:49:27.465Z,4.57
2023-05-03T19:51:56.201Z,4.95
2023-05-03T19:54:23.952Z,4.30
2023-05-03T19:56:51.736Z,4.22
2023-05-03T19:59:19.858Z,6.53
2023-05-03T20:01:47.724Z,5.10
2023-05-03T20:04:15.582Z,5.28
2023-05-03T20:06:43.650Z,3.65
2023-05-03T20:09:13.178Z,3.75
2023-05-03T20:11:41.403Z,4.10
2023-05-03T20:14:09.256Z,4.25
2023-05-03T20:16:39.220Z,3.97
2023-05-03T20:19:07.167Z,4.05
2023-05-03T20:21:34.846Z,4.90
2023-05-03T20:24:04.814Z,4.10
2023-05-03T20:26:32.636Z,4.18
2023-05-03T20:29:01.071Z,5.35
2023-05-03T20:31:28.945Z,5.38
2023-05-03T20:33:56.989Z,5.68
2023-05-03T20:36:24.714Z,4.47
2023-05-03T20:38:52.738Z,4.63
2023-05-03T20:41:20.763Z,4.68
2023-05-03T20:43:48.525Z,4.75
2023-05-03T20:46:18.590Z,3.80
2023-05-03T20:48:46.406Z,3.85
2023-05-03T20:51:15.041Z,4.10
2023-05-03T20:53:42.864Z,3.65
2023-05-03T20:56:11.648Z,4.97
2023-05-03T20:58:39.593Z,5.95
2023-05-03T21:01:08.264Z,5.35
2023-05-03T21:03:36.388Z,4.78
2023-05-03T21:06:05.734Z,4.20
2023-05-03T21:08:33.513Z,4.03
2023-05-03T21:11:01.441Z,4.13
2023-05-03T21:13:29.244Z,3.90
2023-05-03T21:15:57.064Z,3.45
2023-05-03T21:18:25.221Z,3.83
2023-05-03T21:20:54.401Z,3.20
2023-05-03T21:23:22.285Z,3.55
2023-05-03T21:25:50.084Z,3.08
2023-05-03T21:28:17.762Z,2.78
2023-05-03T21:30:48.649Z,3.08
2023-05-03T21:33:16.776Z,2.45
2023-05-03T21:35:44.765Z,2.22
2023-05-03T21:38:12.588Z,2.85
2023-05-03T21:40:40.413Z,2.30
2023-05-03T21:43:10.008Z,2.50
2023-05-03T21:45:37.796Z,2.28
2023-05-03T21:48:06.516Z,2.60
2023-05-03T21:50:38.075Z,2.30
2023-05-03T21:53:07.264Z,2.40
2023-05-03T21:55:34.889Z,2.03
2023-05-03T21:58:02.594Z,2.10
2023-05-03T22:00:31.959Z,2.15
2023-05-03T22:02:59.865Z,1.92
2023-05-03T22:05:28.525Z,2.17
2023-05-03T22:07:56.279Z,2.55
2023-05-03T22:10:24.010Z,2.10
2023-05-03T22:12:51.940Z,1.60
2023-05-03T22:15:20.568Z,2.17
2023-05-03T22:17:48.481Z,3.38
2023-05-03T22:20:16.453Z,5.00
2023-05-03T22:22:44.227Z,4.82
2023-05-03T22:25:23.145Z,4.53
2023-05-03T22:27:51.934Z,3.80
2023-05-03T22:30:20.551Z,3.42
2023-05-03T22:32:48.296Z,2.92
2023-05-03T22:35:16.219Z,2.88
2023-05-03T22:37:43.966Z,2.70
2023-05-03T22:40:12.238Z,2.75
2023-05-03T22:42:40.041Z,3.13
2023-05-03T22:45:09.038Z,3.00
2023-05-03T22:47:36.935Z,2.58
2023-05-03T22:50:05.885Z,2.78
2023-05-03T22:52:33.881Z,2.00
2023-05-03T22:55:02.379Z,1.95
2023-05-03T22:57:30.351Z,2.30
2023-05-03T22:59:58.250Z,2.22
2023-05-03T23:02:26.882Z,2.38
2023-05-03T23:04:55.014Z,2.33
2023-05-03T23:07:25.230Z,1.95
2023-05-03T23:10:02.816Z,1.80
2023-05-03T23:12:31.867Z,2.28
2023-05-03T23:14:59.887Z,1.92
2023-05-03T23:17:28.401Z,1.92
2023-05-03T23:19:56.108Z,2.28
2023-05-03T23:22:23.742Z,1.80
2023-05-03T23:24:52.010Z,2.05
2023-05-03T23:27:19.692Z,1.88
2023-05-03T23:29:48.373Z,2.67
2023-05-03T23:32:16.811Z,1.80
2023-05-03T23:34:44.900Z,2.10
2023-05-03T23:37:12.548Z,2.10
2023-05-03T23:39:46.965Z,1.73
2023-05-03T23:42:14.667Z,2.22
2023-05-03T23:44:54.411Z,1.77
2023-05-03T23:47:24.315Z,2.50
2023-05-03T23:49:52.499Z,2.10
2023-05-03T23:52:20.771Z,2.67
2023-05-03T23:54:48.604Z,2.00
2023-05-03T23:57:17.197Z,2.05
2023-05-03T23:59:45.280Z,2.20
